Port Vue, Pennsylvania
Current Conditions -  °F | °C
As of 8:53 AM on Thursday 23 Oct 2014 (Local Time) from KAGC Reporting Station
Broken Clouds Broken Clouds  
Wind Chill: 41°   Ceiling: 2400
Heat Index: 47°   Visibility: 10mi
Dew Point: 40°   Wind: 14mph
Humidity: 77%   Direction: 330°NNW
Pressure: 30.12"   Gusts: NA
Location:  40.323°N, 79.8617°W
Report Text: KAGC 231253Z 33012KT 10SM BKN024 08/04 A3012 RMK AO2 SLP207 T00830044
Loading
Personal Weather Stations






























Interactive Weather Map
Tropical Storm Tracking
New forecast layout! Learn more

10-Day Weather Forecast

Advertisements
Track Severe Weather on mobile